Time;durP1;ratioP1;P1;durP2;ratioP2;P2;SDS_P1;SDS_P2;PMS_P1;PMS_P2;Temp;Humidity;BMP_temperature;BMP_pressure;BME280_temperature;BME280_humidity;BME280_pressure;Samples;Min_cycle;Max_cycle;Signal;HPM_P1;HPM_P2
2023/01/14 00:00:14;;;;;;;10.87;3.20;;;7.20;99.90;;;;;;5050306;28;20206;-69
2023/01/14 00:02:40;;;;;;;9.80;3.43;;;7.20;99.90;;;;;;5050208;28;20555;-69
2023/01/14 00:05:09;;;;;;;7.57;3.00;;;7.30;99.90;;;;;;5056184;28;20649;-69
2023/01/14 00:07:36;;;;;;;8.07;3.60;;;7.30;99.90;;;;;;5051909;28;20202;-69
2023/01/14 00:10:04;;;;;;;8.03;2.70;;;7.30;99.90;;;;;;5048972;28;20227;-69
2023/01/14 00:12:31;;;;;;;7.20;2.13;;;7.30;99.90;;;;;;5049265;28;20586;-69
2023/01/14 00:14:58;;;;;;;7.53;2.60;;;7.40;99.90;;;;;;5052510;28;20668;-69
2023/01/14 00:17:25;;;;;;;7.73;2.77;;;7.40;99.90;;;;;;5049768;28;20199;-69
2023/01/14 00:19:52;;;;;;;4.70;2.87;;;7.40;99.90;;;;;;5041891;28;20195;-69
2023/01/14 00:22:20;;;;;;;8.17;2.40;;;7.40;99.90;;;;;;5048618;28;20203;-69
2023/01/14 00:24:47;;;;;;;5.97;2.60;;;7.40;99.90;;;;;;5048580;28;20286;-69
2023/01/14 00:27:16;;;;;;;6.53;2.30;;;7.40;99.90;;;;;;5051432;28;20679;-69
2023/01/14 00:29:42;;;;;;;6.50;2.57;;;7.40;99.90;;;;;;5052403;28;20226;-69
2023/01/14 00:32:10;;;;;;;10.87;2.93;;;7.40;99.90;;;;;;5046542;28;20206;-69
2023/01/14 00:34:37;;;;;;;10.30;2.90;;;7.40;99.90;;;;;;5053120;28;20210;-69
2023/01/14 00:37:04;;;;;;;9.83;2.90;;;7.40;99.90;;;;;;5049158;28;20559;-69
2023/01/14 00:39:32;;;;;;;5.30;2.80;;;7.50;99.90;;;;;;5054230;28;20719;-69
2023/01/14 00:41:59;;;;;;;7.70;2.80;;;7.50;99.90;;;;;;5051233;28;20206;-69
2023/01/14 00:44:26;;;;;;;9.17;2.97;;;7.50;99.90;;;;;;5051761;28;20206;-69
2023/01/14 00:46:53;;;;;;;11.17;3.77;;;7.60;99.90;;;;;;5051686;28;20202;-69
2023/01/14 00:49:23;;;;;;;8.30;3.10;;;7.60;99.90;;;;;;5051740;28;20259;-69
2023/01/14 00:51:51;;;;;;;12.33;3.10;;;7.70;99.90;;;;;;5051572;28;20564;-69
2023/01/14 00:54:18;;;;;;;6.23;2.93;;;7.70;99.90;;;;;;5051634;28;20191;-69
2023/01/14 00:56:47;;;;;;;6.93;2.67;;;7.70;99.90;;;;;;5051833;28;20203;-69
2023/01/14 00:59:18;;;;;;;5.37;2.50;;;7.70;99.90;;;;;;5051981;28;20191;-69
2023/01/14 01:01:47;;;;;;;11.07;2.30;;;7.70;99.90;;;;;;5053881;28;20203;-69
2023/01/14 01:04:14;;;;;;;5.23;2.53;;;7.70;99.90;;;;;;5055729;28;20578;-69
2023/01/14 01:06:40;;;;;;;7.33;2.43;;;7.70;99.90;;;;;;5055714;28;20202;-69
2023/01/14 01:09:08;;;;;;;8.67;3.27;;;7.70;99.90;;;;;;5055388;28;20210;-69
2023/01/14 01:11:35;;;;;;;6.83;2.60;;;7.70;99.90;;;;;;5055761;28;20207;-69
2023/01/14 01:14:03;;;;;;;7.30;2.23;;;7.60;99.90;;;;;;5055760;28;20786;-69
2023/01/14 01:16:30;;;;;;;6.07;2.40;;;7.60;99.90;;;;;;5055661;28;20375;-69
2023/01/14 01:18:57;;;;;;;6.83;2.33;;;7.50;99.90;;;;;;5055771;28;20207;-69
2023/01/14 01:21:25;;;;;;;8.63;2.53;;;7.40;99.90;;;;;;5055136;28;20300;-69
2023/01/14 01:23:52;;;;;;;7.23;2.57;;;7.40;99.90;;;;;;5055196;28;20191;-69
2023/01/14 01:26:21;;;;;;;5.47;2.57;;;7.40;99.90;;;;;;5055316;28;20215;-69
2023/01/14 01:28:49;;;;;;;5.73;1.63;;;7.40;99.90;;;;;;5055441;28;20565;-69
2023/01/14 01:31:17;;;;;;;6.27;2.77;;;7.40;99.90;;;;;;5055325;28;20653;-69
2023/01/14 01:33:44;;;;;;;5.33;2.40;;;7.30;99.90;;;;;;5055018;28;20195;-69
2023/01/14 01:36:14;;;;;;;6.27;2.17;;;7.40;99.90;;;;;;5055139;28;20206;-69
2023/01/14 01:38:41;;;;;;;3.77;2.03;;;7.20;99.90;;;;;;5054951;28;20657;-69
2023/01/14 01:41:09;;;;;;;6.23;2.07;;;7.20;99.90;;;;;;5055298;28;20675;-69
2023/01/14 01:43:36;;;;;;;10.57;2.60;;;7.20;99.90;;;;;;5054714;28;20195;-68
2023/01/14 01:46:03;;;;;;;4.47;2.20;;;7.20;99.90;;;;;;5054874;28;20206;-69
2023/01/14 01:48:35;;;;;;;8.17;3.00;;;7.30;99.90;;;;;;5054741;28;20195;-69
2023/01/14 01:51:05;;;;;;;7.53;2.30;;;7.30;99.90;;;;;;5054739;28;20218;-69
2023/01/14 01:53:34;;;;;;;6.33;2.10;;;7.30;99.90;;;;;;5051879;28;20209;-69
2023/01/14 01:56:01;;;;;;;7.30;2.47;;;7.30;99.90;;;;;;5040785;28;20654;-69
2023/01/14 01:58:29;;;;;;;8.03;2.40;;;7.30;99.90;;;;;;5054653;28;20203;-69
2023/01/14 02:00:55;;;;;;;5.87;2.00;;;7.20;99.90;;;;;;5055006;28;20637;-69
2023/01/14 02:03:26;;;;;;;6.50;2.47;;;7.30;99.90;;;;;;5053995;28;20199;-69
2023/01/14 02:05:55;;;;;;;9.57;2.70;;;7.20;99.90;;;;;;5053775;28;20234;-69
2023/01/14 02:08:22;;;;;;;6.77;1.90;;;7.20;99.90;;;;;;5053820;28;20242;-69
2023/01/14 02:11:18;;;;;;;7.03;2.00;;;7.30;99.90;;;;;;5053691;28;20688;-68
2023/01/14 02:13:56;;;;;;;7.60;2.37;;;7.40;99.90;;;;;;5052539;28;20234;-69
2023/01/14 02:16:32;;;;;;;7.27;2.27;;;7.40;99.90;;;;;;5053475;28;20289;-68
2023/01/14 02:19:15;;;;;;;6.63;2.13;;;7.40;99.90;;;;;;5052712;28;20677;-68
2023/01/14 02:21:48;;;;;;;8.23;2.60;;;7.40;99.90;;;;;;5047845;28;20195;-69
2023/01/14 02:24:52;;;;;;;8.43;2.60;;;7.30;99.90;;;;;;5053299;28;20238;-68
2023/01/14 02:27:48;;;;;;;5.07;2.20;;;7.30;99.90;;;;;;5052560;28;20206;-69
2023/01/14 02:30:43;;;;;;;10.20;2.37;;;7.30;99.90;;;;;;5048332;28;20238;-70
2023/01/14 02:33:21;;;;;;;5.70;2.03;;;7.50;99.90;;;;;;5051671;28;20281;-70
2023/01/14 02:35:53;;;;;;;8.13;2.93;;;7.60;99.90;;;;;;5051136;28;20191;-70
2023/01/14 02:38:32;;;;;;;5.57;2.17;;;7.50;99.90;;;;;;5052832;28;20242;-70
2023/01/14 02:41:03;;;;;;;7.70;2.20;;;7.50;99.90;;;;;;5037365;28;20294;-72
2023/01/14 02:46:29;;;;;;;5.43;2.30;;;7.50;99.90;;;;;;5050901;28;20209;-68
2023/01/14 02:48:59;;;;;;;6.97;2.23;;;7.50;99.90;;;;;;5044544;28;20210;-69
2023/01/14 02:51:27;;;;;;;8.30;2.67;;;7.60;99.90;;;;;;5050367;28;20635;-69
2023/01/14 02:53:54;;;;;;;9.07;3.07;;;7.50;99.90;;;;;;5052229;28;20227;-69
2023/01/14 02:56:21;;;;;;;6.97;2.37;;;7.60;99.90;;;;;;5051409;28;20234;-69
2023/01/14 02:59:23;;;;;;;9.53;2.43;;;7.50;99.90;;;;;;5052406;28;20195;-69
2023/01/14 03:02:19;;;;;;;9.10;2.50;;;7.60;99.90;;;;;;5044105;28;20715;-68
2023/01/14 03:04:58;;;;;;;10.87;2.67;;;7.60;99.90;;;;;;5048649;28;20250;-69
2023/01/14 03:07:31;;;;;;;9.77;2.60;;;7.60;99.90;;;;;;5050861;28;20203;-69
2023/01/14 03:10:04;;;;;;;7.33;2.30;;;7.60;99.90;;;;;;5051857;28;20258;-69
2023/01/14 03:12:40;;;;;;;10.53;2.77;;;7.60;99.90;;;;;;5052351;28;20203;-69
2023/01/14 03:15:17;;;;;;;6.13;2.47;;;7.50;99.90;;;;;;5051547;28;20206;-68
2023/01/14 03:17:51;;;;;;;7.50;3.27;;;7.60;99.90;;;;;;5052362;28;20261;-69
2023/01/14 03:20:22;;;;;;;6.20;2.80;;;7.60;99.90;;;;;;5051513;28;20206;-68
2023/01/14 03:22:51;;;;;;;14.23;3.83;;;7.60;99.90;;;;;;5052118;28;20227;-69
2023/01/14 03:25:21;;;;;;;15.67;3.57;;;7.50;99.90;;;;;;5049653;28;20207;-71
2023/01/14 03:27:50;;;;;;;9.53;3.63;;;7.50;99.90;;;;;;5052376;28;20231;-69
2023/01/14 03:30:21;;;;;;;9.10;3.43;;;7.50;99.90;;;;;;5051709;28;20559;-69
2023/01/14 03:32:55;;;;;;;12.97;4.10;;;7.50;99.90;;;;;;5050531;28;20282;-69
2023/01/14 03:35:24;;;;;;;13.23;4.57;;;7.60;99.90;;;;;;5051938;28;20252;-69
2023/01/14 03:37:55;;;;;;;14.00;4.03;;;7.50;99.90;;;;;;5051004;28;20611;-69
2023/01/14 03:40:26;;;;;;;19.17;4.80;;;7.50;99.90;;;;;;5051831;28;20290;-69
2023/01/14 03:42:57;;;;;;;15.37;5.00;;;7.50;99.90;;;;;;5050578;28;20712;-70
2023/01/14 03:45:29;;;;;;;12.90;5.00;;;7.50;99.90;;;;;;5035313;28;20341;-70
2023/01/14 03:47:58;;;;;;;13.77;5.13;;;7.50;99.90;;;;;;5050634;28;20631;-70
2023/01/14 03:50:31;;;;;;;12.00;5.17;;;7.50;99.90;;;;;;5051341;28;20314;-71
2023/01/14 03:53:16;;;;;;;15.23;6.03;;;7.50;99.90;;;;;;5050369;28;20199;-69
2023/01/14 03:55:53;;;;;;;12.57;5.67;;;7.50;99.90;;;;;;5050143;28;20242;-69
2023/01/14 03:58:27;;;;;;;13.10;5.10;;;7.40;99.90;;;;;;5047978;28;20280;-69
2023/01/14 04:00:57;;;;;;;14.03;5.60;;;7.40;99.90;;;;;;5050128;28;20202;-69
2023/01/14 04:03:27;;;;;;;15.47;4.67;;;7.40;99.90;;;;;;5049019;28;20225;-69
2023/01/14 04:05:56;;;;;;;11.73;4.67;;;7.30;99.90;;;;;;5050674;28;20238;-69
2023/01/14 04:08:25;;;;;;;15.93;5.67;;;7.20;99.90;;;;;;5051030;28;20207;-69
2023/01/14 04:10:52;;;;;;;17.87;5.23;;;7.20;99.90;;;;;;5051009;28;20312;-69
2023/01/14 04:16:05;;;;;;;14.87;5.63;;;7.30;99.90;;;;;;5051119;28;20194;-69
2023/01/14 04:18:33;;;;;;;19.57;5.50;;;7.40;99.90;;;;;;5050059;28;20289;-69
2023/01/14 04:21:00;;;;;;;14.23;5.40;;;7.40;99.90;;;;;;5050676;28;20235;-70
2023/01/14 04:23:28;;;;;;;22.43;5.60;;;7.40;99.90;;;;;;5049621;28;20199;-70
2023/01/14 04:25:58;;;;;;;14.80;6.07;;;7.50;99.90;;;;;;5049990;28;20199;-70
2023/01/14 04:28:26;;;;;;;16.77;5.17;;;7.60;99.90;;;;;;5050468;28;20225;-70
2023/01/14 04:30:53;;;;;;;18.20;5.43;;;7.50;99.90;;;;;;5051389;28;20223;-70
2023/01/14 04:33:20;;;;;;;12.63;4.73;;;7.50;99.90;;;;;;5049954;28;20309;-70
2023/01/14 04:35:49;;;;;;;15.50;4.60;;;7.50;99.90;;;;;;5050083;28;20231;-70
2023/01/14 04:38:17;;;;;;;17.97;4.90;;;7.50;99.90;;;;;;5049892;28;20253;-70
2023/01/14 04:40:44;;;;;;;17.37;5.47;;;7.50;99.90;;;;;;5051389;28;20235;-71
2023/01/14 04:43:10;;;;;;;18.63;5.17;;;7.50;99.90;;;;;;5050084;28;20227;-71
2023/01/14 04:45:37;;;;;;;12.60;5.07;;;7.50;99.90;;;;;;5049911;28;20344;-69
2023/01/14 04:48:04;;;;;;;17.93;5.07;;;7.50;99.90;;;;;;5049985;28;20694;-71
2023/01/14 04:50:32;;;;;;;15.97;4.40;;;7.50;99.90;;;;;;5049525;28;20310;-72
2023/01/14 04:53:06;;;;;;;16.27;4.43;;;7.50;99.90;;;;;;5047148;28;20209;-71
2023/01/14 04:55:36;;;;;;;14.10;4.87;;;7.50;99.90;;;;;;5050883;28;20664;-71
2023/01/14 04:58:04;;;;;;;17.27;5.00;;;7.40;99.90;;;;;;5044484;28;20211;-71
2023/01/14 05:00:32;;;;;;;16.57;5.97;;;7.50;99.90;;;;;;5050903;28;20313;-69
2023/01/14 05:02:58;;;;;;;12.47;5.07;;;7.40;99.90;;;;;;5048744;28;20239;-69
2023/01/14 05:05:25;;;;;;;20.50;4.23;;;7.50;99.90;;;;;;5050225;28;20199;-72
2023/01/14 05:07:52;;;;;;;25.37;7.23;;;7.50;99.90;;;;;;5049282;28;20226;-69
2023/01/14 05:10:21;;;;;;;15.67;4.30;;;7.50;99.90;;;;;;5049111;28;20207;-71
2023/01/14 05:12:56;;;;;;;14.97;4.20;;;7.50;99.90;;;;;;5050600;28;20203;-72
2023/01/14 05:15:24;;;;;;;10.13;3.60;;;7.40;99.90;;;;;;5050183;28;20534;-72
2023/01/14 05:17:51;;;;;;;10.03;3.90;;;7.50;99.90;;;;;;5051148;28;20290;-69
2023/01/14 05:20:19;;;;;;;16.73;4.87;;;7.50;99.90;;;;;;5049773;28;20294;-69
2023/01/14 05:22:46;;;;;;;13.30;4.43;;;7.40;99.90;;;;;;5049760;28;20301;-69
2023/01/14 05:25:13;;;;;;;20.60;5.80;;;7.40;99.90;;;;;;5049266;28;20246;-68
2023/01/14 05:27:42;;;;;;;13.00;4.10;;;7.50;99.90;;;;;;5050397;28;20203;-69
2023/01/14 05:30:10;;;;;;;15.20;4.03;;;7.50;99.90;;;;;;5050280;28;20244;-69
2023/01/14 05:32:37;;;;;;;15.17;5.03;;;7.50;99.90;;;;;;5048577;28;20665;-68
2023/01/14 05:35:04;;;;;;;18.80;4.77;;;7.60;99.90;;;;;;5050017;28;20230;-68
2023/01/14 05:37:33;;;;;;;14.73;4.67;;;7.60;99.90;;;;;;5049073;28;20237;-69
2023/01/14 05:40:00;;;;;;;19.90;5.53;;;7.50;99.90;;;;;;5050491;28;20298;-69
2023/01/14 05:47:58;;;;;;;13.83;4.37;;;7.30;99.90;;;;;;5049536;28;20745;-72
2023/01/14 05:50:25;;;;;;;17.03;4.57;;;7.30;99.90;;;;;;5053295;28;20282;-71
2023/01/14 05:52:52;;;;;;;19.40;5.13;;;7.30;99.90;;;;;;5052508;28;20195;-71
2023/01/14 05:55:19;;;;;;;17.93;5.07;;;7.30;99.90;;;;;;5053112;28;20238;-69
2023/01/14 05:57:46;;;;;;;17.20;4.50;;;7.20;99.90;;;;;;5053702;28;20231;-71
2023/01/14 06:08:24;;;;;;;19.20;4.37;;;7.30;99.90;;;;;;5053828;28;20206;-69
2023/01/14 06:10:52;;;;;;;10.93;4.27;;;7.30;99.90;;;;;;5052726;28;20211;-69
2023/01/14 06:13:22;;;;;;;13.10;4.73;;;7.30;99.90;;;;;;5052660;28;20242;-69
2023/01/14 06:15:52;;;;;;;19.33;4.73;;;7.30;99.90;;;;;;5053294;28;20211;-69
2023/01/14 06:18:22;;;;;;;19.50;4.60;;;7.30;99.90;;;;;;5053037;28;20225;-69
2023/01/14 06:20:50;;;;;;;19.73;5.03;;;7.30;99.90;;;;;;5053929;28;20217;-69
2023/01/14 06:23:18;;;;;;;16.33;4.40;;;7.40;99.90;;;;;;5052886;28;20231;-69
2023/01/14 06:25:46;;;;;;;16.13;4.50;;;7.40;99.90;;;;;;5053381;28;20211;-69
2023/01/14 06:28:13;;;;;;;15.30;3.80;;;7.40;99.90;;;;;;5053127;28;20234;-69
2023/01/14 06:30:41;;;;;;;20.33;3.93;;;7.50;99.90;;;;;;5053103;28;20341;-72
2023/01/14 06:33:10;;;;;;;18.40;3.20;;;7.40;99.90;;;;;;5051728;28;20284;-72
2023/01/14 06:35:42;;;;;;;11.73;3.17;;;7.40;99.90;;;;;;5051912;28;20238;-71
2023/01/14 06:38:09;;;;;;;13.37;3.70;;;7.30;99.90;;;;;;5052487;28;20209;-69
2023/01/14 06:40:37;;;;;;;14.77;3.13;;;7.40;99.90;;;;;;5051698;28;20287;-69
2023/01/14 06:43:05;;;;;;;18.43;4.20;;;7.40;99.90;;;;;;5052551;28;20207;-69
2023/01/14 06:45:32;;;;;;;13.53;2.87;;;7.40;99.90;;;;;;5053235;28;20282;-70
2023/01/14 06:48:00;;;;;;;15.20;2.80;;;7.40;99.90;;;;;;5052553;28;20238;-71
2023/01/14 06:50:28;;;;;;;11.37;2.90;;;7.40;99.90;;;;;;5051898;28;20206;-71
2023/01/14 06:53:00;;;;;;;10.23;3.07;;;7.50;99.90;;;;;;5052312;28;20250;-71
2023/01/14 06:55:27;;;;;;;18.00;3.20;;;7.40;99.90;;;;;;5050725;28;20281;-71
2023/01/14 06:57:54;;;;;;;11.53;2.83;;;7.40;99.90;;;;;;5052867;28;20202;-70
2023/01/14 07:00:21;;;;;;;16.67;3.63;;;7.40;99.90;;;;;;5052307;28;20234;-69
2023/01/14 07:02:48;;;;;;;14.33;2.53;;;7.30;99.90;;;;;;5052403;28;20238;-69
2023/01/14 07:05:16;;;;;;;12.87;3.63;;;7.20;99.90;;;;;;5052305;28;20258;-70
2023/01/14 07:07:46;;;;;;;15.43;3.20;;;7.30;99.90;;;;;;5052070;28;20291;-70
2023/01/14 07:10:14;;;;;;;13.13;2.63;;;7.30;99.90;;;;;;5052131;28;20287;-70
2023/01/14 07:12:45;;;;;;;16.07;2.93;;;7.20;99.90;;;;;;5050916;28;20322;-70
2023/01/14 07:15:12;;;;;;;11.10;2.90;;;7.10;99.90;;;;;;5052066;28;20198;-70
2023/01/14 07:17:39;;;;;;;13.83;3.40;;;7.00;99.90;;;;;;5052098;28;20244;-70
2023/01/14 07:20:07;;;;;;;12.77;3.90;;;7.10;99.90;;;;;;5052315;28;20238;-70
2023/01/14 07:22:34;;;;;;;13.20;2.63;;;7.10;99.90;;;;;;5044747;28;20195;-70
2023/01/14 07:25:03;;;;;;;13.03;2.60;;;7.10;99.90;;;;;;5048856;28;20298;-70
2023/01/14 07:27:30;;;;;;;12.63;3.47;;;7.10;99.90;;;;;;5046959;28;20676;-71
2023/01/14 07:29:58;;;;;;;14.00;2.70;;;7.10;99.90;;;;;;5046936;28;20278;-71
2023/01/14 07:32:25;;;;;;;11.73;2.83;;;7.10;99.90;;;;;;5047362;28;20322;-70
2023/01/14 07:34:52;;;;;;;14.53;4.40;;;7.10;99.90;;;;;;5049158;28;20191;-70
2023/01/14 07:37:19;;;;;;;16.90;3.70;;;7.30;99.90;;;;;;5048633;28;20234;-70
2023/01/14 07:39:46;;;;;;;13.77;2.47;;;7.30;99.90;;;;;;5048435;28;20562;-70
2023/01/14 07:42:17;;;;;;;14.83;3.67;;;7.30;99.90;;;;;;5049936;28;20234;-70
2023/01/14 07:44:44;;;;;;;12.77;3.97;;;7.30;99.90;;;;;;5048670;28;20224;-70
2023/01/14 07:47:12;;;;;;;12.37;2.70;;;7.30;99.90;;;;;;5046791;28;20204;-70
2023/01/14 07:49:40;;;;;;;9.37;2.60;;;7.20;99.90;;;;;;5050624;28;20199;-70
2023/01/14 07:52:07;;;;;;;13.13;2.63;;;7.20;99.90;;;;;;5048417;28;20890;-69
2023/01/14 07:54:34;;;;;;;12.23;2.67;;;7.20;99.90;;;;;;5052622;28;20692;-69
2023/01/14 07:57:01;;;;;;;11.50;2.70;;;7.20;99.90;;;;;;5049081;28;20289;-68
2023/01/14 07:59:30;;;;;;;13.97;2.80;;;7.20;99.90;;;;;;5048916;28;20654;-69
2023/01/14 08:01:57;;;;;;;13.53;2.70;;;7.20;99.90;;;;;;5045131;28;20615;-69
2023/01/14 08:04:24;;;;;;;11.33;2.73;;;7.20;99.90;;;;;;5046913;28;20238;-69
2023/01/14 08:06:51;;;;;;;11.77;2.37;;;7.10;99.90;;;;;;5049577;28;20231;-69
2023/01/14 08:09:18;;;;;;;13.37;3.83;;;7.10;99.90;;;;;;5049617;28;20264;-71
2023/01/14 08:11:45;;;;;;;12.03;2.63;;;7.10;99.90;;;;;;5046064;28;20585;-72
2023/01/14 08:14:12;;;;;;;8.40;2.40;;;7.10;99.90;;;;;;5044702;28;20257;-72
2023/01/14 08:16:40;;;;;;;11.33;2.40;;;7.10;99.90;;;;;;5057218;28;20198;-72
2023/01/14 08:19:08;;;;;;;11.83;2.73;;;7.10;99.90;;;;;;5045090;28;20279;-72
2023/01/14 08:21:35;;;;;;;11.30;2.63;;;7.00;99.90;;;;;;5046463;28;22041;-72
2023/01/14 08:24:02;;;;;;;9.77;3.30;;;7.00;99.90;;;;;;5046541;28;20234;-73
2023/01/14 08:26:29;;;;;;;14.33;4.00;;;7.00;99.90;;;;;;5045363;28;20677;-72
2023/01/14 08:28:56;;;;;;;10.83;2.20;;;7.00;99.90;;;;;;5046694;28;20305;-72
2023/01/14 08:31:23;;;;;;;10.03;2.40;;;7.00;99.90;;;;;;5048270;28;20237;-72
2023/01/14 08:33:51;;;;;;;6.50;2.30;;;7.00;99.90;;;;;;5046990;28;20199;-72
2023/01/14 08:36:19;;;;;;;9.17;2.40;;;7.00;99.90;;;;;;5045538;28;20285;-72
2023/01/14 08:38:48;;;;;;;7.47;2.50;;;7.00;99.90;;;;;;5043073;28;20280;-72
2023/01/14 08:41:17;;;;;;;10.10;2.33;;;6.90;99.90;;;;;;5047437;28;20215;-72
2023/01/14 08:43:48;;;;;;;11.63;3.10;;;7.00;99.90;;;;;;5043158;28;20241;-72
2023/01/14 08:46:15;;;;;;;12.63;2.90;;;7.00;99.90;;;;;;5043602;28;20230;-72
2023/01/14 08:48:42;;;;;;;10.43;2.30;;;7.00;99.90;;;;;;5048388;28;20311;-72
2023/01/14 08:51:13;;;;;;;8.17;2.00;;;7.00;99.90;;;;;;5045204;28;20207;-72
2023/01/14 08:53:40;;;;;;;10.73;2.40;;;7.00;99.90;;;;;;5044451;28;20245;-72
2023/01/14 08:56:11;;;;;;;9.60;2.67;;;7.10;99.90;;;;;;5045004;28;20235;-72
2023/01/14 08:58:38;;;;;;;8.17;2.57;;;7.10;99.90;;;;;;5043374;28;20207;-72
2023/01/14 09:01:07;;;;;;;11.93;2.93;;;7.10;99.90;;;;;;5044974;28;20237;-72
2023/01/14 09:03:35;;;;;;;8.97;2.57;;;7.10;99.90;;;;;;5048601;28;20207;-70
2023/01/14 09:06:05;;;;;;;14.90;2.60;;;7.10;99.90;;;;;;5045627;28;20288;-70
2023/01/14 09:17:06;;;;;;;8.43;2.10;;;7.20;99.90;;;;;;5045344;28;20576;-72
2023/01/14 09:19:35;;;;;;;12.20;2.30;;;7.20;99.90;;;;;;5049069;28;20237;-70
2023/01/14 09:22:03;;;;;;;7.30;2.13;;;7.20;99.90;;;;;;5050277;28;20207;-70
2023/01/14 09:24:31;;;;;;;7.90;2.00;;;7.30;99.90;;;;;;5050371;28;20243;-70
2023/01/14 09:26:58;;;;;;;8.93;3.23;;;7.20;99.90;;;;;;5050954;28;20491;-70
2023/01/14 09:29:25;;;;;;;13.33;2.67;;;7.30;99.90;;;;;;5052481;28;20205;-70
2023/01/14 09:31:52;;;;;;;11.37;2.27;;;7.20;99.90;;;;;;5048128;28;20638;-70
2023/01/14 09:34:19;;;;;;;9.57;2.33;;;7.30;99.90;;;;;;5047251;28;20234;-70
2023/01/14 09:36:46;;;;;;;8.50;1.90;;;7.30;99.90;;;;;;5052306;28;20249;-70
2023/01/14 09:39:13;;;;;;;13.03;2.77;;;7.30;99.90;;;;;;5048531;28;20290;-70
2023/01/14 09:41:50;;;;;;;11.30;2.00;;;7.30;99.90;;;;;;5049079;28;20234;-70
2023/01/14 09:44:18;;;;;;;9.47;2.13;;;7.30;99.90;;;;;;5049881;28;20203;-70
2023/01/14 09:46:45;;;;;;;13.20;2.07;;;7.40;99.90;;;;;;5051282;28;20628;-70
2023/01/14 09:49:16;;;;;;;10.67;2.43;;;7.40;99.90;;;;;;5047045;28;20289;-70
2023/01/14 09:52:15;;;;;;;17.17;2.77;;;7.40;99.90;;;;;;5048750;28;20237;-70
2023/01/14 09:54:53;;;;;;;9.50;2.73;;;7.40;99.90;;;;;;5048520;28;20681;-70
2023/01/14 09:57:29;;;;;;;10.00;2.63;;;7.50;99.90;;;;;;5043762;28;20294;-70
2023/01/14 10:00:01;;;;;;;12.07;2.77;;;7.50;99.90;;;;;;5049377;28;20246;-70
2023/01/14 10:02:35;;;;;;;8.43;2.43;;;7.50;99.90;;;;;;5049653;28;20234;-70
2023/01/14 10:05:18;;;;;;;9.27;2.13;;;7.50;99.90;;;;;;5050048;28;20298;-70
2023/01/14 10:07:45;;;;;;;12.13;2.30;;;7.50;99.90;;;;;;5049223;28;20282;-70
2023/01/14 10:10:24;;;;;;;7.50;2.00;;;7.60;99.90;;;;;;5047005;28;20285;-70
2023/01/14 10:12:54;;;;;;;10.77;2.40;;;7.60;99.90;;;;;;5048444;28;20739;-69
2023/01/14 10:15:34;;;;;;;17.03;2.30;;;7.60;99.90;;;;;;5048576;28;20231;-70
2023/01/14 10:18:11;;;;;;;12.43;2.20;;;7.60;99.90;;;;;;5046349;28;20234;-70
2023/01/14 10:20:49;;;;;;;8.77;2.40;;;7.60;99.90;;;;;;5046585;28;20226;-70
2023/01/14 10:23:19;;;;;;;11.30;2.10;;;7.60;99.90;;;;;;5061969;28;20231;-70
2023/01/14 10:25:50;;;;;;;11.70;2.33;;;7.60;99.90;;;;;;5045426;28;20702;-70
2023/01/14 10:28:23;;;;;;;13.13;2.63;;;7.60;99.90;;;;;;5045766;28;20207;-70
2023/01/14 10:30:51;;;;;;;12.80;1.93;;;7.70;99.90;;;;;;5046228;28;20256;-70
2023/01/14 10:33:19;;;;;;;12.67;3.40;;;7.70;99.90;;;;;;5050369;28;20226;-70
2023/01/14 10:35:52;;;;;;;11.77;2.20;;;7.70;99.90;;;;;;5045376;28;20646;-70
2023/01/14 10:38:22;;;;;;;11.43;2.40;;;7.70;99.90;;;;;;5051604;28;20211;-70
2023/01/14 10:40:51;;;;;;;14.07;2.70;;;7.70;99.90;;;;;;5047645;28;20230;-70
2023/01/14 10:43:29;;;;;;;15.53;2.70;;;7.70;99.90;;;;;;5044719;28;20237;-70
2023/01/14 10:45:57;;;;;;;11.20;3.40;;;7.70;99.90;;;;;;5049440;28;20290;-70
2023/01/14 10:48:26;;;;;;;10.47;3.00;;;7.70;99.90;;;;;;5048175;28;20231;-70
2023/01/14 10:50:53;;;;;;;8.07;2.30;;;7.60;99.90;;;;;;5046936;28;20226;-70
2023/01/14 10:53:22;;;;;;;11.60;2.17;;;7.50;99.90;;;;;;5049454;28;20314;-70
2023/01/14 10:55:55;;;;;;;10.63;2.30;;;7.40;99.90;;;;;;5051671;28;20237;-70
2023/01/14 10:58:38;;;;;;;9.80;2.90;;;7.40;99.90;;;;;;5049954;28;20309;-70
2023/01/14 11:01:07;;;;;;;8.93;3.60;;;7.40;99.90;;;;;;5051345;28;20226;-70
2023/01/14 11:03:38;;;;;;;14.07;4.10;;;7.40;99.90;;;;;;5052775;28;20245;-70
2023/01/14 11:06:09;;;;;;;10.50;3.10;;;7.40;99.90;;;;;;5046875;28;20237;-70
2023/01/14 11:08:39;;;;;;;13.10;2.50;;;7.30;99.90;;;;;;5040539;28;20249;-70
2023/01/14 11:11:09;;;;;;;10.63;2.90;;;7.30;99.90;;;;;;5048292;28;20238;-70
2023/01/14 11:13:41;;;;;;;19.73;3.33;;;7.30;99.90;;;;;;5046156;28;20288;-70
2023/01/14 11:16:28;;;;;;;8.30;2.53;;;7.20;99.90;;;;;;5045458;28;20207;-70
2023/01/14 11:18:57;;;;;;;13.70;3.33;;;7.20;99.90;;;;;;5047511;28;20205;-70
2023/01/14 11:21:25;;;;;;;12.90;3.07;;;7.20;99.90;;;;;;5044734;28;20284;-70
2023/01/14 11:23:57;;;;;;;11.43;2.73;;;7.30;99.90;;;;;;5040996;28;20238;-70
2023/01/14 11:26:27;;;;;;;14.03;3.17;;;7.20;99.90;;;;;;5045527;28;20195;-70
2023/01/14 11:29:03;;;;;;;12.20;3.20;;;7.20;99.90;;;;;;5049275;28;20195;-70
2023/01/14 11:31:32;;;;;;;7.43;2.70;;;7.20;99.90;;;;;;5040527;28;20203;-70
2023/01/14 11:34:00;;;;;;;9.87;2.43;;;7.20;99.90;;;;;;5042985;28;20314;-69
2023/01/14 11:36:29;;;;;;;10.20;2.53;;;7.30;99.90;;;;;;5047884;28;20287;-69
2023/01/14 11:38:58;;;;;;;9.57;2.47;;;7.20;99.90;;;;;;5044567;28;20228;-69
2023/01/14 11:41:31;;;;;;;11.40;2.90;;;7.30;99.90;;;;;;5044700;28;20226;-69
2023/01/14 11:44:01;;;;;;;6.40;2.70;;;7.20;99.90;;;;;;5048157;28;20569;-69
2023/01/14 11:46:28;;;;;;;8.83;2.93;;;7.30;99.90;;;;;;5044399;28;20199;-69
2023/01/14 11:49:00;;;;;;;8.93;3.10;;;7.40;99.90;;;;;;5045212;28;20565;-69
2023/01/14 11:51:29;;;;;;;11.00;3.10;;;7.40;99.90;;;;;;5046471;28;20210;-69
2023/01/14 11:53:57;;;;;;;15.30;3.00;;;7.40;99.90;;;;;;5047226;28;20234;-68
2023/01/14 11:56:31;;;;;;;9.30;2.80;;;7.50;99.90;;;;;;5048640;28;20207;-68
2023/01/14 11:59:01;;;;;;;9.93;3.20;;;7.50;99.90;;;;;;5047797;28;20278;-69
2023/01/14 12:01:33;;;;;;;5.97;2.37;;;7.50;99.90;;;;;;5048319;28;20225;-68
2023/01/14 12:04:06;;;;;;;12.50;3.03;;;7.60;99.90;;;;;;5045726;28;20277;-68
2023/01/14 12:06:48;;;;;;;8.57;3.20;;;7.50;99.90;;;;;;5047931;28;20253;-68
2023/01/14 12:09:21;;;;;;;8.50;2.97;;;7.60;99.90;;;;;;5048808;28;20482;-68
2023/01/14 12:11:56;;;;;;;7.70;2.90;;;7.70;99.90;;;;;;5041188;28;20199;-68
2023/01/14 12:17:24;;;;;;;11.77;3.83;;;7.70;99.90;;;;;;5051996;28;20222;-68
2023/01/14 12:19:58;;;;;;;9.30;3.10;;;7.70;99.90;;;;;;5041028;28;20202;-68
2023/01/14 12:22:30;;;;;;;8.37;2.43;;;7.70;99.90;;;;;;5042831;28;20221;-68
2023/01/14 12:25:12;;;;;;;8.63;2.50;;;7.60;99.90;;;;;;5048609;28;20245;-68
2023/01/14 12:27:45;;;;;;;11.43;2.57;;;7.70;99.90;;;;;;5049750;28;20203;-68
2023/01/14 12:30:46;;;;;;;7.80;2.83;;;7.70;99.90;;;;;;5045041;28;20234;-69
2023/01/14 12:33:21;;;;;;;6.67;2.40;;;7.70;99.90;;;;;;5040083;28;20239;-69
2023/01/14 12:35:52;;;;;;;4.83;2.43;;;7.70;99.90;;;;;;5041169;28;20297;-69
2023/01/14 12:46:48;;;;;;;4.87;1.93;;;7.80;99.90;;;;;;5049369;28;20702;-69
2023/01/14 12:49:15;;;;;;;10.03;1.70;;;7.80;99.90;;;;;;5044972;28;20705;-69
2023/01/14 12:51:42;;;;;;;8.27;2.20;;;7.80;99.90;;;;;;5045149;28;20859;-68
2023/01/14 12:54:21;;;;;;;7.33;2.43;;;7.80;99.90;;;;;;5042235;28;20227;-69
2023/01/14 12:56:53;;;;;;;6.70;2.30;;;7.80;99.90;;;;;;5041893;28;20245;-69
2023/01/14 12:59:27;;;;;;;6.17;2.00;;;7.90;99.90;;;;;;5051078;28;20285;-69
2023/01/14 13:02:00;;;;;;;4.53;1.80;;;7.90;99.90;;;;;;5050896;28;20202;-69
2023/01/14 13:04:30;;;;;;;6.33;1.70;;;7.80;99.90;;;;;;5051248;28;20239;-69
2023/01/14 13:07:01;;;;;;;6.97;1.60;;;7.90;99.90;;;;;;5046908;28;20203;-69
2023/01/14 13:09:31;;;;;;;4.20;1.80;;;7.80;99.90;;;;;;5051232;28;20289;-69
2023/01/14 13:11:59;;;;;;;4.47;1.40;;;7.90;99.90;;;;;;5050824;28;20234;-69
2023/01/14 13:14:34;;;;;;;5.97;1.57;;;7.90;99.90;;;;;;5049612;28;20732;-69
2023/01/14 13:17:07;;;;;;;5.20;1.57;;;7.90;99.90;;;;;;5053568;28;20292;-68
2023/01/14 13:19:47;;;;;;;3.80;1.53;;;7.90;99.90;;;;;;5051311;28;20205;-68
2023/01/14 13:22:42;;;;;;;4.97;1.40;;;7.90;99.90;;;;;;5048083;28;20219;-68
2023/01/14 13:25:43;;;;;;;5.17;1.47;;;8.00;99.90;;;;;;5052107;28;20677;-69
2023/01/14 13:28:33;;;;;;;3.87;1.40;;;8.00;99.90;;;;;;5057459;28;20285;-68
2023/01/14 13:31:24;;;;;;;3.23;1.20;;;8.00;99.90;;;;;;5053598;28;20298;-69
2023/01/14 13:34:26;;;;;;;5.63;1.47;;;8.00;99.90;;;;;;5048516;28;20227;-69
2023/01/14 13:37:24;;;;;;;8.33;1.80;;;8.00;99.90;;;;;;5044176;28;20297;-69
2023/01/14 13:39:55;;;;;;;4.57;1.87;;;8.00;99.90;;;;;;5046970;28;20207;-68
2023/01/14 13:42:27;;;;;;;6.27;2.57;;;7.90;99.90;;;;;;5047468;28;20206;-69
2023/01/14 13:44:56;;;;;;;4.90;1.40;;;8.00;99.90;;;;;;5052359;28;20285;-69
2023/01/14 13:47:32;;;;;;;3.47;1.23;;;8.00;99.90;;;;;;5050404;28;20553;-69